Time;durP1;ratioP1;P1;durP2;ratioP2;P2;SDS_P1;SDS_P2;PMS_P1;PMS_P2;Temp;Humidity;BMP_temperature;BMP_pressure;BME280_temperature;BME280_humidity;BME280_pressure;Samples;Min_cycle;Max_cycle;Signal;HPM_P1;HPM_P2
2021/07/09 00:01:35;;;;;;;22.40;20.57;;;;;;;25.05;72.23;98914.14;124816;1093;64422;-78
2021/07/09 00:04:02;;;;;;;21.47;19.40;;;;;;;25.06;72.16;98910.36;124805;1091;64270;-78
2021/07/09 00:06:28;;;;;;;21.53;19.53;;;;;;;25.04;72.17;98909.73;124817;1093;64210;-80
2021/07/09 00:08:55;;;;;;;22.40;20.37;;;;;;;25.01;72.45;98912.00;124780;1093;64284;-78
2021/07/09 00:11:21;;;;;;;22.47;20.27;;;;;;;24.95;72.32;98916.36;124775;1093;64283;-79
2021/07/09 00:13:48;;;;;;;22.10;19.83;;;;;;;24.90;72.25;98936.03;124796;1093;64300;-78
2021/07/09 00:16:16;;;;;;;21.75;19.85;;;;;;;24.84;72.65;98979.60;124822;1093;64265;-78
2021/07/09 00:18:47;;;;;;;21.43;19.47;;;;;;;24.68;74.51;99002.50;124859;1093;64303;-78
2021/07/09 00:21:15;;;;;;;24.90;22.80;;;;;;;24.55;74.50;98994.19;124759;1093;64204;-79
2021/07/09 00:23:43;;;;;;;26.97;24.57;;;;;;;24.45;74.16;98962.63;124771;1093;64335;-79
2021/07/09 00:26:10;;;;;;;28.07;25.67;;;;;;;24.39;74.60;98955.20;124785;1093;64383;-79
2021/07/09 00:28:37;;;;;;;28.25;26.00;;;;;;;24.37;74.76;98960.00;124788;1093;65884;-79
2021/07/09 00:31:04;;;;;;;27.77;25.33;;;;;;;24.34;75.22;98954.10;124803;1093;64214;-78
2021/07/09 00:33:30;;;;;;;28.20;25.80;;;;;;;24.28;75.54;98951.11;124801;1092;64242;-77
2021/07/09 00:35:57;;;;;;;29.60;27.10;;;;;;;24.25;75.39;98937.02;124785;1093;64357;-78
2021/07/09 00:38:23;;;;;;;28.93;26.43;;;;;;;24.22;75.96;98942.84;124822;1093;64249;-78
2021/07/09 00:40:50;;;;;;;31.05;28.45;;;;;;;24.19;76.70;98940.52;124775;1093;64238;-78
2021/07/09 00:43:16;;;;;;;31.20;28.40;;;;;;;24.18;76.90;98944.28;124807;1093;64281;-78
2021/07/09 00:45:43;;;;;;;31.25;28.45;;;;;;;24.17;76.48;98939.85;124895;1093;64220;-78
2021/07/09 00:48:10;;;;;;;31.17;28.57;;;;;;;24.15;77.16;98931.05;124884;1093;64408;-78
2021/07/09 00:50:37;;;;;;;30.70;27.93;;;;;;;24.15;76.83;98922.89;124873;1093;64339;-78
2021/07/09 00:53:04;;;;;;;32.47;29.70;;;;;;;24.16;77.38;98925.40;124849;1093;64268;-78
2021/07/09 00:55:30;;;;;;;31.00;28.50;;;;;;;24.16;77.31;98919.11;124866;1093;64212;-78
2021/07/09 00:58:00;;;;;;;33.40;30.60;;;;;;;24.16;77.52;98928.13;124810;1093;64298;-79
2021/07/09 01:00:28;;;;;;;33.00;29.93;;;;;;;24.18;77.03;98926.06;124810;1093;64271;-79
2021/07/09 01:02:56;;;;;;;32.47;29.40;;;;;;;24.19;77.21;98916.84;124789;1093;64245;-79
2021/07/09 01:05:23;;;;;;;30.43;27.80;;;;;;;24.22;77.17;98926.50;124744;1093;64241;-79
2021/07/09 01:07:50;;;;;;;30.67;28.00;;;;;;;24.24;76.94;98928.00;124770;1092;64268;-79
2021/07/09 01:10:19;;;;;;;30.00;27.60;;;;;;;24.27;76.96;98932.22;124790;1093;64283;-78
2021/07/09 01:12:47;;;;;;;29.10;26.50;;;;;;;24.26;76.94;98925.94;124761;1093;64290;-78
2021/07/09 01:15:17;;;;;;;30.03;27.33;;;;;;;24.23;77.23;98928.22;124819;1093;64210;-78
2021/07/09 01:17:44;;;;;;;29.83;27.17;;;;;;;24.16;77.19;98922.67;124808;1092;64267;-77
2021/07/09 01:20:12;;;;;;;30.80;27.97;;;;;;;24.10;77.24;98915.28;124805;1093;64310;-79
2021/07/09 01:22:42;;;;;;;30.60;28.10;;;;;;;24.06;77.20;98903.91;124813;1093;64404;-79
2021/07/09 01:25:12;;;;;;;31.73;29.03;;;;;;;24.04;77.35;98896.97;124835;1093;64420;-78
2021/07/09 01:27:39;;;;;;;;;;;;;;;24.03;77.61;98895.30;124831;1093;64603;-78
2021/07/09 01:30:08;;;;;;;32.87;30.13;;;;;;;24.00;77.63;98887.52;124783;1093;64241;-78
2021/07/09 01:32:35;;;;;;;32.48;29.85;;;;;;;23.96;77.37;98897.09;124820;1093;64760;-78
2021/07/09 01:35:03;;;;;;;32.80;29.80;;;;;;;23.97;77.67;98890.63;124853;1093;64312;-78
2021/07/09 01:37:30;;;;;;;31.23;28.53;;;;;;;24.00;77.91;98885.63;124852;1093;64286;-78
2021/07/09 01:39:56;;;;;;;31.70;29.00;;;;;;;24.03;77.84;98887.13;124818;1093;64443;-79
2021/07/09 01:42:23;;;;;;;31.53;28.50;;;;;;;23.97;77.84;98872.41;124772;1093;64241;-79
2021/07/09 01:44:52;;;;;;;31.90;29.10;;;;;;;23.90;77.85;98874.20;124803;1093;64261;-79
2021/07/09 01:47:19;;;;;;;31.43;28.83;;;;;;;23.84;78.21;98875.81;124797;1091;64284;-79
2021/07/09 01:49:58;;;;;;;31.07;28.37;;;;;;;23.78;78.29;98875.75;124851;1093;64322;-78
2021/07/09 01:52:26;;;;;;;31.83;28.67;;;;;;;23.77;78.48;98876.77;124828;1093;64434;-78
2021/07/09 01:54:54;;;;;;;32.17;29.27;;;;;;;23.73;78.62;98883.64;124835;1093;64267;-78
2021/07/09 01:57:22;;;;;;;33.90;30.73;;;;;;;23.68;78.52;98873.28;124786;1093;64262;-79
2021/07/09 01:59:48;;;;;;;33.97;31.20;;;;;;;23.64;78.65;98883.72;124774;1093;64283;-79
2021/07/09 02:02:15;;;;;;;30.97;28.27;;;;;;;23.64;78.82;98883.72;124814;1091;64422;-79
2021/07/09 02:04:50;;;;;;;32.00;29.17;;;;;;;23.61;79.05;98878.63;124811;1093;64188;-79
2021/07/09 02:07:18;;;;;;;32.50;29.90;;;;;;;23.58;78.96;98883.61;124818;1093;64266;-79
2021/07/09 02:09:47;;;;;;;34.27;31.37;;;;;;;23.57;79.24;98884.66;124847;1093;64249;-79
2021/07/09 02:12:16;;;;;;;35.03;31.93;;;;;;;23.53;79.41;98873.29;124905;1092;64383;-79
2021/07/09 02:14:43;;;;;;;36.27;33.17;;;;;;;23.47;79.54;98874.05;124836;1093;64361;-79
2021/07/09 02:17:12;;;;;;;35.03;31.93;;;;;;;23.44;79.83;98872.55;124820;1092;64453;-79
2021/07/09 02:19:40;;;;;;;33.68;30.38;;;;;;;23.45;79.97;98855.19;124799;1093;64268;-79
2021/07/09 02:22:09;;;;;;;34.17;31.20;;;;;;;23.49;79.76;98858.39;124837;1093;64284;-79
2021/07/09 02:24:37;;;;;;;34.10;31.00;;;;;;;23.49;79.95;98855.68;124907;1092;64615;-79
2021/07/09 02:27:05;;;;;;;31.33;28.73;;;;;;;23.42;80.08;98861.02;124943;1093;64291;-79
2021/07/09 02:29:33;;;;;;;34.10;31.10;;;;;;;23.36;79.96;98863.66;124758;1093;64279;-79
2021/07/09 02:32:01;;;;;;;33.47;30.43;;;;;;;23.32;80.13;98863.17;124828;1093;64269;-76
2021/07/09 02:34:29;;;;;;;33.07;30.33;;;;;;;23.27;80.46;98865.61;124786;1093;64306;-76
2021/07/09 02:36:57;;;;;;;34.07;31.13;;;;;;;23.23;80.50;98861.59;124755;1093;64184;-76
2021/07/09 02:39:25;;;;;;;33.45;30.45;;;;;;;23.15;80.69;98851.65;124770;1093;64287;-76
2021/07/09 02:41:53;;;;;;;33.67;30.87;;;;;;;23.15;81.11;98864.41;124843;1093;64302;-76
2021/07/09 02:44:21;;;;;;;33.13;30.13;;;;;;;23.13;81.29;98861.02;124820;1093;64276;-76
2021/07/09 02:46:48;;;;;;;34.10;30.90;;;;;;;23.14;81.29;98849.94;124811;1093;64287;-75
2021/07/09 02:49:14;;;;;;;32.67;30.03;;;;;;;23.12;81.64;98860.19;124789;1093;64191;-75
2021/07/09 02:51:41;;;;;;;35.23;31.93;;;;;;;23.12;81.62;98857.47;124780;1093;64393;-75
2021/07/09 02:54:08;;;;;;;33.30;30.40;;;;;;;23.15;81.61;98854.37;124780;1093;64357;-75
2021/07/09 02:56:35;;;;;;;35.00;31.90;;;;;;;23.12;81.86;98854.75;124762;1093;64273;-76
2021/07/09 02:59:01;;;;;;;36.35;33.35;;;;;;;23.10;81.95;98840.49;124784;1093;64188;-76
2021/07/09 03:01:28;;;;;;;43.47;39.57;;;;;;;23.17;82.20;98837.85;124789;1093;64280;-75
2021/07/09 03:03:54;;;;;;;36.30;33.20;;;;;;;23.22;82.00;98835.41;124792;1093;64242;-74
2021/07/09 03:06:22;;;;;;;35.97;32.90;;;;;;;23.22;81.92;98846.29;124791;1093;64439;-75
2021/07/09 03:08:50;;;;;;;35.80;32.63;;;;;;;23.14;81.88;98846.39;124821;1093;64267;-76
2021/07/09 03:11:18;;;;;;;36.30;33.07;;;;;;;23.12;82.01;98843.03;124855;1093;64271;-76
2021/07/09 03:13:44;;;;;;;37.33;33.80;;;;;;;23.18;82.59;98839.55;124813;1093;64303;-76
2021/07/09 03:16:11;;;;;;;41.85;37.95;;;;;;;23.30;82.43;98837.20;124797;1093;64398;-76
2021/07/09 03:18:37;;;;;;;40.90;37.30;;;;;;;23.40;82.47;98835.88;124771;1093;64276;-76
2021/07/09 03:21:03;;;;;;;37.97;34.67;;;;;;;23.45;82.23;98841.59;124809;1092;64268;-76
2021/07/09 03:23:30;;;;;;;38.43;34.90;;;;;;;23.40;81.80;98838.59;124780;1093;64383;-76
2021/07/09 03:26:00;;;;;;;37.13;34.00;;;;;;;23.41;82.13;98839.46;124782;1092;64264;-76
2021/07/09 03:28:27;;;;;;;36.20;32.83;;;;;;;23.44;81.97;98834.48;124786;1093;64309;-76
2021/07/09 03:30:54;;;;;;;34.90;31.93;;;;;;;23.47;82.04;98833.25;124842;1093;64367;-76
2021/07/09 03:33:21;;;;;;;39.83;36.53;;;;;;;23.57;82.06;98843.85;124789;1093;64686;-76
2021/07/09 03:35:48;;;;;;;37.20;34.10;;;;;;;23.65;81.64;98846.46;124796;1093;64306;-76
2021/07/09 03:38:15;;;;;;;33.30;30.50;;;;;;;23.72;81.80;98854.72;124764;1093;64223;-76
2021/07/09 03:40:41;;;;;;;37.77;34.67;;;;;;;23.83;81.54;98846.09;124799;1093;64255;-76
2021/07/09 03:43:08;;;;;;;38.40;35.07;;;;;;;24.00;81.25;98847.52;124793;1093;64351;-76
2021/07/09 03:45:34;;;;;;;39.50;36.20;;;;;;;24.37;80.88;98852.92;124797;1093;64267;-76
2021/07/09 03:48:01;;;;;;;39.50;36.10;;;;;;;24.58;80.07;98858.39;124792;1093;64293;-76
2021/07/09 03:50:27;;;;;;;36.67;33.33;;;;;;;24.94;79.46;98847.36;124818;1093;64295;-76
2021/07/09 03:52:54;;;;;;;36.03;32.80;;;;;;;25.51;78.47;98845.41;124806;1093;64373;-74
2021/07/09 03:55:20;;;;;;;32.77;30.13;;;;;;;26.01;77.01;98846.08;124810;1093;64311;-75
2021/07/09 03:57:47;;;;;;;34.93;32.20;;;;;;;26.47;76.37;98837.11;124808;1093;64263;-74
2021/07/09 04:00:15;;;;;;;35.47;32.40;;;;;;;26.95;75.79;98837.97;124781;1092;64239;-75
2021/07/09 04:02:42;;;;;;;32.97;30.37;;;;;;;27.31;74.32;98843.83;124867;1093;64214;-75
2021/07/09 04:05:10;;;;;;;34.33;31.63;;;;;;;27.60;73.34;98840.80;124773;1093;64310;-75
2021/07/09 04:07:40;;;;;;;33.37;30.77;;;;;;;27.98;72.74;98843.58;124765;1093;64399;-74
2021/07/09 04:10:08;;;;;;;34.43;31.10;;;;;;;28.15;71.61;98842.02;124780;1093;64270;-75
2021/07/09 04:12:35;;;;;;;31.70;29.27;;;;;;;28.41;71.09;98830.05;124792;1093;64377;-75
2021/07/09 04:15:01;;;;;;;34.57;31.63;;;;;;;27.93;70.94;98836.02;124792;1093;64274;-75
2021/07/09 04:17:27;;;;;;;34.23;31.30;;;;;;;27.55;71.63;98844.17;124808;1093;64391;-75
2021/07/09 04:19:54;;;;;;;33.27;30.77;;;;;;;27.58;71.37;98847.31;124789;1092;64437;-75
2021/07/09 04:22:20;;;;;;;35.05;32.15;;;;;;;28.05;70.36;98838.92;124813;1093;64287;-75
2021/07/09 04:24:47;;;;;;;35.90;32.90;;;;;;;28.39;69.52;98837.64;124783;1093;64284;-75
2021/07/09 04:27:14;;;;;;;34.27;31.57;;;;;;;28.86;68.51;98837.30;124833;1093;64402;-75
2021/07/09 04:29:40;;;;;;;36.00;32.93;;;;;;;29.22;67.58;98833.78;124763;1093;64278;-80
2021/07/09 04:32:07;;;;;;;33.15;30.60;;;;;;;29.63;67.13;98828.70;124775;1093;64287;-79
2021/07/09 04:34:34;;;;;;;33.93;31.30;;;;;;;29.90;65.83;98834.71;124799;1093;64280;-79
2021/07/09 04:37:02;;;;;;;34.40;31.70;;;;;;;30.03;65.39;98829.03;124806;1093;64265;-78
2021/07/09 04:39:28;;;;;;;32.23;29.63;;;;;;;30.40;64.71;98829.77;124841;1092;64265;-78
2021/07/09 04:41:55;;;;;;;32.60;30.10;;;;;;;30.67;63.91;98834.01;124777;1093;64259;-78
2021/07/09 04:44:21;;;;;;;29.97;27.77;;;;;;;30.88;63.44;98825.20;124750;1091;64762;-78
2021/07/09 04:46:48;;;;;;;31.97;29.33;;;;;;;31.15;62.55;98832.97;124839;1093;64319;-79
2021/07/09 04:49:14;;;;;;;31.17;28.80;;;;;;;31.45;61.55;98827.36;124785;1093;64191;-79
2021/07/09 04:51:41;;;;;;;32.37;29.83;;;;;;;31.55;60.75;98829.50;124775;1093;64290;-79
2021/07/09 04:54:07;;;;;;;28.63;26.10;;;;;;;31.64;59.99;98819.76;124777;1093;64242;-79
2021/07/09 04:56:34;;;;;;;28.47;26.13;;;;;;;31.66;59.35;98818.44;124793;1093;64355;-80
2021/07/09 04:59:00;;;;;;;28.63;26.23;;;;;;;31.87;59.16;98816.09;124767;1093;64287;-79
2021/07/09 05:01:27;;;;;;;28.87;26.77;;;;;;;32.00;57.98;98826.03;124879;1093;64285;-79
2021/07/09 05:03:53;;;;;;;28.57;26.27;;;;;;;32.17;58.46;98826.05;124804;1093;64265;-79
2021/07/09 05:06:20;;;;;;;27.13;24.87;;;;;;;32.42;57.54;98839.48;124765;1093;64243;-79
2021/07/09 05:08:46;;;;;;;27.03;24.80;;;;;;;32.55;57.09;98828.16;124784;1093;64319;-79
2021/07/09 05:11:13;;;;;;;26.33;24.43;;;;;;;32.75;56.46;98835.92;124796;1093;64294;-79
2021/07/09 05:13:39;;;;;;;27.70;25.57;;;;;;;33.00;56.24;98839.09;124838;1093;64281;-80
2021/07/09 05:16:07;;;;;;;26.80;24.67;;;;;;;33.34;55.37;98836.31;124780;1093;64232;-80
2021/07/09 05:18:33;;;;;;;23.67;22.07;;;;;;;33.59;54.70;98848.82;124776;1093;64294;-79
2021/07/09 05:21:01;;;;;;;23.47;21.57;;;;;;;33.87;54.31;98845.86;124832;1093;64402;-80
2021/07/09 05:23:28;;;;;;;23.10;20.97;;;;;;;34.16;53.40;98853.13;124789;1093;64265;-80
2021/07/09 05:25:55;;;;;;;23.15;21.00;;;;;;;34.28;52.25;98871.26;124673;1092;64182;-80
2021/07/09 05:28:22;;;;;;;21.85;20.25;;;;;;;34.20;52.03;98888.29;124750;1093;64264;-80
2021/07/09 05:30:48;;;;;;;21.93;19.83;;;;;;;34.15;52.27;98909.53;124775;1093;64339;-80
2021/07/09 05:33:15;;;;;;;26.90;24.10;;;;;;;33.81;51.05;98918.78;124792;1093;64338;-80
2021/07/09 05:35:44;;;;;;;24.90;22.87;;;;;;;33.04;51.58;98918.70;124778;1093;64287;-80
2021/07/09 05:38:11;;;;;;;25.40;23.23;;;;;;;32.57;52.78;98911.50;124984;1093;64265;-80
2021/07/09 05:40:38;;;;;;;27.93;25.67;;;;;;;32.23;52.79;98885.73;124944;1093;64273;-79
2021/07/09 05:43:04;;;;;;;26.27;24.37;;;;;;;32.11;53.27;98903.16;124856;1093;64261;-80
2021/07/09 05:45:31;;;;;;;25.53;23.23;;;;;;;32.22;53.32;98912.47;124865;1093;64262;-80
2021/07/09 05:47:57;;;;;;;23.97;21.93;;;;;;;32.18;52.58;98907.69;124851;1093;64280;-80
2021/07/09 05:50:26;;;;;;;24.30;22.27;;;;;;;31.42;53.18;98927.00;124978;1093;64278;-78
2021/07/09 05:52:55;;;;;;;25.40;23.45;;;;;;;30.34;54.49;98915.13;124840;1093;64312;-78
2021/07/09 05:55:21;;;;;;;;;;;;;;;29.49;55.56;98905.75;124801;1093;64270;-78
2021/07/09 05:57:49;;;;;;;23.70;21.60;;;;;;;29.57;56.47;98932.08;124781;1093;64377;-79
2021/07/09 06:00:16;;;;;;;23.63;21.63;;;;;;;30.02;55.96;98929.05;124812;1093;64309;-79
2021/07/09 06:02:43;;;;;;;21.50;19.73;;;;;;;29.72;55.59;98910.57;124821;1093;64316;-79
2021/07/09 06:05:10;;;;;;;22.13;20.00;;;;;;;29.82;55.69;98895.47;124795;1093;64268;-79
2021/07/09 06:07:36;;;;;;;21.87;19.90;;;;;;;30.14;55.33;98909.86;124786;1093;64864;-79
2021/07/09 06:10:05;;;;;;;20.47;18.87;;;;;;;30.69;55.09;98906.14;124805;1093;64238;-79
2021/07/09 06:12:32;;;;;;;21.40;19.48;;;;;;;30.28;55.36;98894.05;124823;1093;64415;-79
2021/07/09 06:14:59;;;;;;;21.23;19.20;;;;;;;30.84;54.85;98888.14;124781;1093;64241;-79
2021/07/09 06:17:27;;;;;;;20.93;19.40;;;;;;;31.09;53.88;98892.58;124780;1093;64245;-78
2021/07/09 06:19:54;;;;;;;21.40;19.47;;;;;;;31.21;52.89;98889.85;124795;1093;64268;-79
2021/07/09 06:22:21;;;;;;;20.33;18.73;;;;;;;31.30;53.12;98896.66;124769;1093;64293;-79
2021/07/09 06:24:47;;;;;;;21.40;19.50;;;;;;;31.38;53.04;98895.49;124795;1093;64273;-79
2021/07/09 06:27:14;;;;;;;21.03;19.03;;;;;;;31.40;52.89;98896.09;124819;1093;65479;-79
2021/07/09 06:29:40;;;;;;;21.13;19.40;;;;;;;31.51;52.91;98897.99;124862;1092;64324;-79
2021/07/09 06:32:07;;;;;;;22.00;20.10;;;;;;;31.67;52.76;98888.98;124768;1092;64267;-79
2021/07/09 06:34:34;;;;;;;21.30;19.53;;;;;;;31.74;52.32;98883.35;124843;1093;64383;-79
2021/07/09 06:37:00;;;;;;;21.57;19.73;;;;;;;31.71;51.94;98887.42;124819;1093;64287;-79
2021/07/09 06:39:27;;;;;;;19.17;17.63;;;;;;;31.63;51.72;98879.54;124771;1092;64283;-79
2021/07/09 06:41:54;;;;;;;20.50;18.85;;;;;;;31.47;51.99;98888.55;124819;1093;64273;-79
2021/07/09 06:44:21;;;;;;;20.73;19.13;;;;;;;31.44;52.45;98867.84;124788;1092;64280;-79
2021/07/09 06:46:48;;;;;;;21.10;19.23;;;;;;;31.13;52.50;98851.67;124789;1093;64306;-78
2021/07/09 06:49:15;;;;;;;19.43;17.97;;;;;;;30.83;52.75;98842.45;124809;1093;64363;-78
2021/07/09 06:51:41;;;;;;;19.67;17.93;;;;;;;30.72;53.20;98840.47;125223;1092;64271;-86
2021/07/09 06:54:08;;;;;;;19.63;18.17;;;;;;;30.77;52.91;98850.77;124964;1093;64305;-78
2021/07/09 06:56:34;;;;;;;20.50;18.70;;;;;;;31.00;53.32;98844.48;124779;1093;64243;-82
2021/07/09 06:59:01;;;;;;;20.30;18.43;;;;;;;31.17;53.21;98841.84;124900;1093;64405;-80
2021/07/09 07:01:27;;;;;;;19.27;17.67;;;;;;;31.15;53.63;98838.48;124910;1093;64616;-81
2021/07/09 07:03:54;;;;;;;20.95;19.25;;;;;;;31.00;53.39;98828.80;124934;1093;64221;-79
2021/07/09 07:06:20;;;;;;;21.30;19.33;;;;;;;31.27;53.36;98822.80;124942;1093;64271;-79
2021/07/09 07:08:47;;;;;;;21.00;19.15;;;;;;;31.30;51.96;98810.46;124889;1093;64622;-79
2021/07/09 07:11:13;;;;;;;21.90;19.93;;;;;;;31.33;52.70;98799.79;124909;1093;64366;-86
2021/07/09 07:13:40;;;;;;;20.70;18.93;;;;;;;31.51;52.11;98790.56;124894;1093;64268;-83
2021/07/09 07:16:07;;;;;;;20.47;18.50;;;;;;;31.57;52.10;98788.75;125010;1092;64286;-81
2021/07/09 07:18:34;;;;;;;22.03;20.00;;;;;;;31.58;51.92;98790.44;124873;1092;64287;-80
2021/07/09 07:21:00;;;;;;;21.13;19.10;;;;;;;31.56;51.46;98804.45;124862;1093;64608;-80
2021/07/09 07:23:27;;;;;;;20.80;18.75;;;;;;;31.30;51.45;98797.52;124848;1093;64322;-80
2021/07/09 07:25:54;;;;;;;21.63;19.80;;;;;;;30.99;51.70;98805.13;124845;1093;64283;-80
2021/07/09 07:28:21;;;;;;;21.37;19.50;;;;;;;31.02;52.30;98803.80;124885;1093;64242;-82
2021/07/09 07:30:48;;;;;;;19.93;17.93;;;;;;;31.18;52.43;98804.98;124793;1093;64268;-79
2021/07/09 07:33:14;;;;;;;20.97;19.17;;;;;;;30.97;52.87;98792.67;124760;1093;64309;-79
2021/07/09 07:35:41;;;;;;;21.80;20.00;;;;;;;30.76;52.53;98783.08;124828;1093;64283;-79
2021/07/09 07:38:08;;;;;;;22.25;20.05;;;;;;;30.60;53.53;98779.13;124778;1093;64309;-79
2021/07/09 07:40:36;;;;;;;21.83;19.97;;;;;;;30.61;54.03;98784.36;124782;1093;64221;-79
2021/07/09 07:43:05;;;;;;;22.17;20.20;;;;;;;30.65;53.75;98770.99;124824;1093;64268;-79
2021/07/09 07:45:32;;;;;;;22.33;20.03;;;;;;;30.72;54.03;98779.95;124778;1093;64287;-80
2021/07/09 07:48:00;;;;;;;22.33;20.47;;;;;;;30.73;53.37;98775.27;124767;1093;64421;-78
2021/07/09 07:50:27;;;;;;;24.00;21.70;;;;;;;30.69;53.79;98783.18;124808;1093;64268;-78
2021/07/09 07:52:54;;;;;;;23.87;21.60;;;;;;;30.69;53.79;98772.17;124848;1092;64274;-78
2021/07/09 07:55:21;;;;;;;24.40;22.30;;;;;;;30.68;53.39;98776.02;124801;1093;64346;-78
2021/07/09 07:57:47;;;;;;;24.40;22.50;;;;;;;30.63;53.59;98779.47;124760;1093;64306;-77
2021/07/09 08:00:14;;;;;;;24.57;22.40;;;;;;;30.71;53.80;98778.28;124811;1093;64191;-78
2021/07/09 08:02:41;;;;;;;24.70;22.60;;;;;;;30.87;53.63;98768.50;124779;1091;64319;-78
2021/07/09 08:05:09;;;;;;;24.53;22.17;;;;;;;31.04;54.04;98774.96;124673;1093;64316;-79
2021/07/09 08:07:36;;;;;;;24.20;22.07;;;;;;;31.26;53.86;98769.65;124841;1093;64286;-79
2021/07/09 08:10:04;;;;;;;24.23;22.10;;;;;;;31.44;53.44;98757.66;124774;1093;64358;-79
2021/07/09 08:12:30;;;;;;;26.17;23.63;;;;;;;31.47;52.89;98764.61;124854;1092;64376;-79
2021/07/09 08:14:57;;;;;;;25.40;22.90;;;;;;;31.24;52.83;98769.05;124784;1093;64229;-79
2021/07/09 08:17:23;;;;;;;22.77;20.77;;;;;;;31.18;52.91;98763.69;124789;1093;64318;-79
2021/07/09 08:19:50;;;;;;;24.03;21.90;;;;;;;31.36;52.49;98763.53;124804;1093;64271;-79
2021/07/09 08:22:16;;;;;;;23.60;21.43;;;;;;;31.22;52.16;98756.60;124772;1094;64382;-78
2021/07/09 08:24:42;;;;;;;26.05;23.90;;;;;;;31.10;52.59;98759.39;124787;1092;64711;-78
2021/07/09 08:27:09;;;;;;;24.33;22.30;;;;;;;31.14;52.90;98755.06;124875;1092;64274;-78
2021/07/09 08:29:36;;;;;;;25.60;23.40;;;;;;;31.17;52.88;98750.98;124862;1093;64494;-78
2021/07/09 08:32:03;;;;;;;25.63;23.47;;;;;;;31.02;52.63;98755.09;124834;1093;64763;-79
2021/07/09 08:34:29;;;;;;;24.70;22.60;;;;;;;31.00;53.13;98748.16;124756;1093;64375;-80
2021/07/09 08:36:56;;;;;;;22.93;21.07;;;;;;;31.11;53.64;98747.29;124808;1093;64342;-78
2021/07/09 08:39:22;;;;;;;25.40;23.20;;;;;;;31.31;53.38;98765.31;124769;1093;64213;-79
2021/07/09 08:41:49;;;;;;;23.57;21.87;;;;;;;31.46;52.63;98760.16;124814;1093;64194;-79
2021/07/09 08:44:16;;;;;;;25.07;23.13;;;;;;;31.50;52.46;98758.60;124881;1093;64267;-78
2021/07/09 08:46:43;;;;;;;25.63;23.50;;;;;;;31.58;52.63;98757.38;124782;1093;64376;-79
2021/07/09 08:49:15;;;;;;;24.53;22.63;;;;;;;31.60;52.37;98767.08;124863;1093;64300;-79
2021/07/09 08:51:43;;;;;;;24.60;22.50;;;;;;;31.60;52.65;98760.73;124828;1092;65818;-81
2021/07/09 08:54:12;;;;;;;24.63;22.73;;;;;;;31.55;52.52;98768.89;124848;1093;64245;-80
2021/07/09 08:56:39;;;;;;;27.37;24.83;;;;;;;31.53;52.26;98768.30;124876;1093;64280;-80
2021/07/09 08:59:05;;;;;;;26.03;23.87;;;;;;;31.52;52.13;98774.87;124902;1091;64284;-80
2021/07/09 09:02:06;;;;;;;25.73;23.53;;;;;;;31.49;52.33;98777.05;124901;1093;64421;-81
2021/07/09 09:04:35;;;;;;;27.57;24.80;;;;;;;31.54;52.66;98784.56;124847;1093;64268;-79
2021/07/09 09:07:09;;;;;;;25.80;23.53;;;;;;;31.60;53.06;98785.53;124898;1093;64284;-80
2021/07/09 09:09:39;;;;;;;25.53;23.33;;;;;;;31.66;53.44;98801.07;124936;1093;64272;-80
2021/07/09 09:12:10;;;;;;;25.30;23.33;;;;;;;31.70;53.80;98805.86;124883;1093;64267;-80
2021/07/09 09:14:39;;;;;;;25.20;22.90;;;;;;;31.65;53.87;98796.63;124826;1093;64242;-80
2021/07/09 09:17:24;;;;;;;25.07;23.20;;;;;;;31.64;54.17;98803.23;124887;1092;64287;-80
2021/07/09 09:20:13;;;;;;;25.45;23.15;;;;;;;31.60;54.34;98813.91;124900;1093;64621;-80
2021/07/09 09:22:48;;;;;;;25.83;23.03;;;;;;;31.54;54.57;98814.86;124829;1093;64274;-80
2021/07/09 09:25:19;;;;;;;23.87;22.07;;;;;;;31.53;54.69;98804.94;124850;1093;64252;-80
2021/07/09 09:28:08;;;;;;;25.27;22.90;;;;;;;31.59;54.36;98797.61;124891;1093;64245;-80
2021/07/09 09:30:36;;;;;;;25.77;23.57;;;;;;;31.63;54.61;98785.87;124874;1093;64379;-80
2021/07/09 09:33:06;;;;;;;27.17;24.73;;;;;;;31.71;54.81;98785.47;124876;1093;64283;-80
2021/07/09 09:35:37;;;;;;;26.03;23.73;;;;;;;31.82;54.54;98789.27;124846;1093;64386;-81
2021/07/09 09:38:09;;;;;;;25.47;23.40;;;;;;;31.89;54.71;98789.96;124861;1093;64290;-80
2021/07/09 09:40:38;;;;;;;25.80;23.60;;;;;;;31.95;54.82;98785.41;124885;1093;64272;-80
2021/07/09 09:43:12;;;;;;;26.73;24.40;;;;;;;32.01;54.63;98775.31;124859;1093;64286;-81
2021/07/09 09:45:41;;;;;;;25.63;23.17;;;;;;;32.07;54.37;98766.03;124875;1093;64764;-81
2021/07/09 09:48:15;;;;;;;26.53;24.13;;;;;;;32.03;54.25;98762.13;124909;1092;64287;-80
2021/07/09 09:50:44;;;;;;;25.70;23.60;;;;;;;31.90;54.55;98766.81;124889;1093;64287;-80
2021/07/09 09:53:10;;;;;;;;;;;;;;;31.69;55.25;98784.05;124867;1093;64356;-80
2021/07/09 09:55:38;;;;;;;25.33;22.87;;;;;;;31.43;55.69;98788.19;124799;1093;64192;-80
2021/07/09 09:58:18;;;;;;;26.65;24.35;;;;;;;31.17;55.78;98770.25;124812;1093;64265;-81
2021/07/09 10:00:47;;;;;;;26.23;24.23;;;;;;;30.87;55.57;98753.91;124761;1093;64306;-81
2021/07/09 10:03:13;;;;;;;28.57;26.17;;;;;;;30.76;56.06;98741.80;124864;1093;64283;-81
2021/07/09 10:05:42;;;;;;;28.17;25.37;;;;;;;30.71;55.92;98737.02;124873;1093;64288;-81
2021/07/09 10:08:11;;;;;;;29.45;26.53;;;;;;;30.72;55.88;98738.67;124924;1093;64340;-81
2021/07/09 10:10:38;;;;;;;;;;;;;;;30.69;55.97;98735.58;125035;1092;64380;-80
2021/07/09 10:13:06;;;;;;;30.13;27.50;;;;;;;30.56;55.98;98742.15;124932;1093;64281;-80
2021/07/09 10:15:32;;;;;;;27.60;25.43;;;;;;;30.43;56.09;98736.88;124950;1093;64284;-80
2021/07/09 10:18:00;;;;;;;32.27;28.97;;;;;;;30.29;56.45;98728.86;125110;1093;64401;-81
2021/07/09 10:20:27;;;;;;;29.37;26.97;;;;;;;30.11;57.19;98732.50;125305;1093;64294;-80
2021/07/09 10:22:57;;;;;;;31.53;28.70;;;;;;;29.94;57.01;98729.60;125272;1093;64781;-80
2021/07/09 10:25:24;;;;;;;31.13;28.27;;;;;;;29.81;57.34;98739.96;125282;1093;64648;-80
2021/07/09 10:27:52;;;;;;;30.00;27.50;;;;;;;29.68;58.49;98763.79;125003;1092;64274;-80
2021/07/09 10:30:19;;;;;;;29.20;26.50;;;;;;;29.65;58.61;98744.17;124845;1093;64347;-80
2021/07/09 10:32:49;;;;;;;31.67;28.77;;;;;;;29.67;58.90;98720.89;124818;1093;64249;-80
2021/07/09 10:35:34;;;;;;;28.65;25.65;;;;;;;29.91;59.58;98718.22;124809;1093;64268;-80
2021/07/09 10:38:08;;;;;;;26.77;24.27;;;;;;;30.30;59.04;98710.45;124903;1093;64255;-79
2021/07/09 10:40:35;;;;;;;25.35;23.45;;;;;;;30.58;58.46;98712.50;124797;1093;64389;-79
2021/07/09 10:43:02;;;;;;;23.40;21.30;;;;;;;30.69;57.79;98711.65;124778;1093;64449;-80
2021/07/09 10:45:29;;;;;;;20.33;18.60;;;;;;;30.70;57.02;98712.48;124897;1093;64232;-80
2021/07/09 10:48:06;;;;;;;18.23;16.53;;;;;;;30.65;55.92;98715.11;124834;1093;64264;-80
2021/07/09 10:50:37;;;;;;;14.07;12.87;;;;;;;30.76;55.09;98712.38;124908;1093;64338;-80
2021/07/09 10:53:09;;;;;;;14.75;13.30;;;;;;;30.82;54.33;98703.17;124817;1093;64273;-80
2021/07/09 10:56:00;;;;;;;12.80;11.70;;;;;;;30.93;54.85;98711.66;124858;1093;64382;-80
2021/07/09 10:58:33;;;;;;;14.53;11.70;;;;;;;31.04;54.12;98706.14;124830;1093;64284;-80
2021/07/09 11:01:05;;;;;;;12.65;11.50;;;;;;;31.16;53.39;98695.09;124895;1093;64214;-80
2021/07/09 11:03:40;;;;;;;12.97;11.47;;;;;;;31.35;52.86;98698.50;124885;1093;64264;-80
2021/07/09 11:06:11;;;;;;;13.10;11.93;;;;;;;31.45;51.95;98701.48;124841;1091;64376;-80
2021/07/09 11:08:40;;;;;;;12.47;10.63;;;;;;;31.47;50.88;98717.78;124887;1093;64379;-80
2021/07/09 11:11:47;;;;;;;12.63;11.63;;;;;;;31.40;51.21;98717.91;124896;1092;64284;-80
2021/07/09 11:14:17;;;;;;;11.75;10.75;;;;;;;31.22;51.30;98718.89;124872;1093;64245;-80